Detalii statie AFILIU TRANS MIZIL [00001982]

Toti senzorii

Date Temperatura solului [C]Precipitatii [mm]Voltaj baterie [mV]Leaf Wetness [Min]HC Air temperature [C]HC Relative humidity [%]Punctul de roua [C]
medieminmaxsumaultimatimpmedieminmaxmediemediemin
2019-06-15 18:00:00 0 7216 28.21 25.51 30.15 45.82 15.1 13.7
2019-06-15 19:00:00 0 7158 24.11 20.35 26.26 59.9 15.4 14.5
2019-06-15 20:00:00 0 7060 20.5 20.27 20.89 92.52 19.1 18.2
2019-06-15 21:00:00 0 7030 20.04 19.81 20.37 99.5 19.8 19.7
2019-06-15 22:00:00 0 7000 19.94 19.77 20.1 99.17 19.7 19.1
2019-06-15 23:00:00 0 6972 19.94 19.75 20.31 93.67 18.7 18.4
2019-06-16 00:00:00 0 6942 19.87 19.56 20.05 93.54 18.6 18.4
2019-06-16 01:00:00 0 6914 19.53 19.27 19.77 95.41 18.6 18.4
2019-06-16 02:00:00 0 6884 18.48 17.95 19.39 98.09 18 17.8
2019-06-16 03:00:00 0 6874 17.77 17.41 18.21 100 17.7 17.4
2019-06-16 04:00:00 0 6844 17.45 17.19 17.63 100 17.4 17.1
2019-06-16 05:00:00 0 6786 16.99 16.42 17.54 100 16.9 16.4
2019-06-16 06:00:00 0 6874 18.45 17.5 19.56 100 18.4 17.5
2019-06-16 07:00:00 0 7030 21.82 19.77 23.73 89.78 19.8 19.1
2019-06-16 08:00:00 0 7186 25.74 24.25 26.95 74.3 20.6 19.6
2019-06-16 09:00:00 0 7216 27.61 26.73 28.33 64.97 20.2 19.4
2019-06-16 10:00:00 0 7216 28.93 28.63 29.47 61.75 20.6 19.9
2019-06-16 11:00:00 0 7216 30.15 29.47 30.67 57.46 20.6 19.3
2019-06-16 12:00:00 0 7216 30.95 30.4 31.4 51.17 19.4 18.1
2019-06-16 13:00:00 0 7216 31.29 30.74 32.19 47.89 18.7 17.6
2019-06-16 14:00:00 0 7216 32.14 31.44 32.82 43.29 17.8 16.4
2019-06-16 15:00:00 0 7216 32.01 30.37 32.57 40.68 16.6 15.5
2019-06-16 16:00:00 0 7216 31.98 31.37 32.7 38.3 15.7 14.9
2019-06-16 17:00:00 0 7216 30.77 30.18 31.41 42.04 16.1 15.2
2019-06-16 18:00:00 0 7206 30.01 28.99 30.81 49.02 17.7 15.2
2019-06-16 19:00:00 0 7206 27.62 25.37 30.08 55.4 17.7 15.7
2019-06-16 20:00:00 0 7108 24.78 23.86 25.32 66.64 17.9 17.2
2019-06-16 21:00:00 0 7060 22.88 22.16 23.54 74.76 18 17.4
2019-06-16 22:00:00 0 7020 21.09 20.24 22.05 82.86 17.9 17.1
2019-06-16 23:00:00 0 6952 19.54 19.28 20.01 95.14 18.6 18.4
2019-06-17 00:00:00 0 6914 18.8 18.48 19.36 97.81 18.3 18
2019-06-17 01:00:00 0 6884 18.9 18.33 19.32 100 18.8 18.3
2019-06-17 02:00:00 0 6874 18.74 18.21 19.2 100 18.7 18.2
2019-06-17 03:00:00 0 6844 17.92 17.35 18.3 100 17.8 17.3
2019-06-17 04:00:00 0 6826 17.29 16.63 17.74 100 17.2 16.6
2019-06-17 05:00:00 0 6834 17.44 17.17 17.7 100 17.3 17.1
2019-06-17 06:00:00 0 6904 18.34 17.62 19.55 100 18.3 17.6
2019-06-17 07:00:00 0 7050 22.58 19.73 25.24 91.02 20.8 19.7
2019-06-17 08:00:00 0 7186 27.18 25.82 28.08 66.56 20.2 18.9
2019-06-17 09:00:00 0 7226 28.58 27.89 29.22 57.57 19.2 18.4
2019-06-17 10:00:00 0 7216 29.99 29.46 31.33 52.87 19.1 18.2
2019-06-17 11:00:00 0 7216 30.98 30.43 31.65 48.59 18.6 17.7
2019-06-17 12:00:00 0 7216 31.72 31.21 32.63 46.55 18.6 17.9
2019-06-17 13:00:00 0 7216 32.39 31.95 32.75 43.97 18.4 17.5
2019-06-17 14:00:00 0 7216 32.59 31.99 33.47 42.39 17.8 16.6
2019-06-17 15:00:00 0 7216 32.1 31.3 32.78 42.39 17.4 16.6
2019-06-17 16:00:00 0 7216 31.18 30.88 31.9 49.06 18.9 17.9
2019-06-17 17:00:00 0 7206 30.32 29.91 30.92 52.74 19.4 18.7